createdAt,value
2018-03-16T00:00:02.731Z,85.69
2018-03-16T00:02:31.008Z,85.21
2018-03-16T00:04:59.272Z,85.77
2018-03-16T00:07:27.697Z,85.77
2018-03-16T00:09:55.952Z,85.58
2018-03-16T00:12:24.235Z,85.75
2018-03-16T00:14:52.541Z,85.84
2018-03-16T00:17:20.816Z,85.28
2018-03-16T00:19:49.864Z,85.30
2018-03-16T00:22:31.656Z,84.47
2018-03-16T00:24:59.954Z,85.55
2018-03-16T00:27:29.941Z,85.11
2018-03-16T00:29:58.218Z,84.49
2018-03-16T00:32:26.508Z,85.30
2018-03-16T00:34:54.779Z,85.02
2018-03-16T00:37:23.050Z,84.41
2018-03-16T00:39:51.324Z,84.06
2018-03-16T00:42:19.576Z,84.63
2018-03-16T00:44:47.871Z,84.98
2018-03-16T00:47:16.338Z,84.89
2018-03-16T00:49:44.775Z,84.52
2018-03-16T00:52:13.074Z,85.49
2018-03-16T00:54:42.123Z,85.30
2018-03-16T00:57:10.383Z,85.11
2018-03-16T00:59:38.872Z,84.74
2018-03-16T01:02:07.138Z,85.07
2018-03-16T01:04:35.414Z,85.48
2018-03-16T01:07:03.688Z,85.87
2018-03-16T01:09:31.969Z,85.76
2018-03-16T01:12:00.284Z,85.42
2018-03-16T01:14:30.158Z,85.25
2018-03-16T01:16:58.441Z,85.40
2018-03-16T01:19:26.719Z,85.71
2018-03-16T01:21:55.018Z,85.66
2018-03-16T01:24:24.161Z,84.40
2018-03-16T01:26:52.684Z,84.79
2018-03-16T01:29:21.127Z,84.91
2018-03-16T01:31:49.445Z,85.30
2018-03-16T01:34:17.717Z,85.02
2018-03-16T01:36:46.778Z,86.00
2018-03-16T01:39:15.092Z,86.10
2018-03-16T01:41:44.117Z,86.86
2018-03-16T01:44:12.395Z,86.97
2018-03-16T01:46:40.650Z,87.21
2018-03-16T01:49:09.765Z,86.96
2018-03-16T01:51:38.171Z,87.63
2018-03-16T01:54:06.439Z,87.80
2018-03-16T01:56:34.710Z,88.33
2018-03-16T01:59:02.968Z,87.54
2018-03-16T02:01:31.238Z,88.49
2018-03-16T02:03:59.512Z,88.92
2018-03-16T02:06:27.783Z,89.15
2018-03-16T02:08:56.053Z,89.00
2018-03-16T02:11:24.306Z,89.49
2018-03-16T02:13:53.341Z,89.60
2018-03-16T02:16:21.613Z,89.99
2018-03-16T02:18:49.992Z,89.76
2018-03-16T02:21:18.249Z,90.04
2018-03-16T02:23:46.525Z,89.93
2018-03-16T02:26:14.790Z,90.07
2018-03-16T02:28:43.092Z,89.98
2018-03-16T02:31:11.435Z,89.68
2018-03-16T02:33:40.466Z,89.62
2018-03-16T02:36:08.738Z,89.69
2018-03-16T02:38:36.993Z,89.84
2018-03-16T02:41:05.264Z,89.82
2018-03-16T02:43:33.539Z,90.22
2018-03-16T02:46:01.795Z,89.27
2018-03-16T02:48:30.860Z,89.24
2018-03-16T02:50:59.166Z,89.41
2018-03-16T02:53:28.228Z,89.79
2018-03-16T02:55:56.544Z,90.03
2018-03-16T02:58:25.592Z,90.22
2018-03-16T03:00:53.851Z,90.09
2018-03-16T03:03:22.144Z,90.17
2018-03-16T03:05:50.397Z,90.36
2018-03-16T03:08:18.702Z,90.26
2018-03-16T03:10:47.025Z,90.82
2018-03-16T03:13:16.035Z,90.78
2018-03-16T03:15:44.310Z,91.59
2018-03-16T03:18:12.601Z,91.47
2018-03-16T03:20:40.862Z,91.89
2018-03-16T03:23:09.137Z,91.98
2018-03-16T03:25:37.415Z,91.86
2018-03-16T03:28:05.795Z,92.13
2018-03-16T03:30:34.072Z,91.99
2018-03-16T03:33:02.919Z,91.67
2018-03-16T03:35:31.988Z,91.67
2018-03-16T03:38:00.255Z,91.14
2018-03-16T03:40:30.068Z,91.68
2018-03-16T03:42:58.338Z,91.53
2018-03-16T03:45:26.598Z,91.51
2018-03-16T03:47:55.579Z,91.53
2018-03-16T03:50:23.847Z,92.15
2018-03-16T03:52:52.138Z,91.78
2018-03-16T03:55:20.408Z,91.94
2018-03-16T03:57:48.659Z,91.78
2018-03-16T04:00:16.937Z,91.78
2018-03-16T04:02:45.210Z,91.73
2018-03-16T04:05:13.509Z,91.69
2018-03-16T04:07:41.765Z,91.60
2018-03-16T04:10:10.206Z,91.36
2018-03-16T04:12:38.459Z,91.06
2018-03-16T04:15:06.748Z,90.89
2018-03-16T04:17:35.063Z,91.02
2018-03-16T04:20:03.364Z,91.28
2018-03-16T04:22:31.634Z,91.56
2018-03-16T04:24:59.912Z,91.31
2018-03-16T04:27:28.197Z,91.09
2018-03-16T04:29:56.482Z,91.32
2018-03-16T04:32:24.745Z,91.99
2018-03-16T04:34:53.122Z,91.93
2018-03-16T04:37:21.402Z,91.93
2018-03-16T04:39:49.679Z,91.99
2018-03-16T04:42:17.940Z,92.00
2018-03-16T04:44:46.208Z,92.48
2018-03-16T04:47:14.480Z,92.41
2018-03-16T04:49:42.760Z,92.73
2018-03-16T04:52:11.018Z,91.85
2018-03-16T04:54:39.292Z,91.73
2018-03-16T04:57:07.577Z,91.63
2018-03-16T04:59:35.859Z,92.32
2018-03-16T05:02:04.136Z,92.54
2018-03-16T05:04:32.439Z,92.44
2018-03-16T05:07:00.886Z,92.01
2018-03-16T05:09:29.338Z,92.14
2018-03-16T05:11:58.482Z,91.88
2018-03-16T05:14:26.757Z,91.77
2018-03-16T05:16:55.078Z,91.73
2018-03-16T05:19:24.166Z,91.40
2018-03-16T05:21:53.206Z,91.43
2018-03-16T05:24:21.496Z,91.74
2018-03-16T05:26:49.763Z,91.48
2018-03-16T05:29:18.155Z,91.23
2018-03-16T05:31:46.454Z,91.34
2018-03-16T05:34:14.951Z,91.08
2018-03-16T05:36:43.988Z,91.37
2018-03-16T05:39:12.269Z,91.41
2018-03-16T05:41:40.760Z,91.40
2018-03-16T05:44:09.875Z,90.78
2018-03-16T05:46:38.193Z,90.59
2018-03-16T05:49:06.535Z,90.84
2018-03-16T05:51:34.836Z,91.35
2018-03-16T05:54:03.126Z,90.65
2018-03-16T05:56:31.408Z,90.31
2018-03-16T05:58:59.910Z,89.41
2018-03-16T06:01:28.604Z,89.47
2018-03-16T06:03:56.955Z,89.64
2018-03-16T06:06:25.219Z,89.73
2018-03-16T06:08:53.496Z,89.34
2018-03-16T06:11:21.811Z,88.58
2018-03-16T06:13:50.098Z,88.78
2018-03-16T06:16:18.523Z,89.16
2018-03-16T06:18:47.048Z,88.88
2018-03-16T06:21:15.411Z,88.92
2018-03-16T06:23:43.671Z,89.00
2018-03-16T06:26:11.946Z,88.02
2018-03-16T06:28:40.231Z,88.55
2018-03-16T06:31:08.500Z,88.43
2018-03-16T06:33:36.763Z,88.27
2018-03-16T06:36:05.084Z,88.56
2018-03-16T06:38:33.340Z,88.66
2018-03-16T06:41:02.426Z,89.21
2018-03-16T06:43:31.548Z,89.32
2018-03-16T06:46:00.658Z,88.88
2018-03-16T06:48:29.688Z,88.81
2018-03-16T06:50:58.062Z,89.40
2018-03-16T06:53:26.320Z,88.75
2018-03-16T06:55:54.695Z,88.90
2018-03-16T06:58:23.065Z,88.61
2018-03-16T07:00:52.098Z,88.98
2018-03-16T07:03:20.406Z,89.54
2018-03-16T07:05:48.654Z,89.92
2018-03-16T07:08:16.914Z,90.47
2018-03-16T07:10:45.200Z,89.11
2018-03-16T07:13:13.484Z,89.74
2018-03-16T07:15:41.774Z,88.90
2018-03-16T07:18:10.071Z,89.01
2018-03-16T07:20:40.069Z,89.25
2018-03-16T07:23:08.451Z,89.32
2018-03-16T07:25:36.775Z,89.78
2018-03-16T07:28:05.059Z,89.17
2018-03-16T07:30:33.349Z,88.88
2018-03-16T07:33:02.192Z,89.05
2018-03-16T07:35:30.508Z,89.82
2018-03-16T07:37:58.807Z,90.28
2018-03-16T07:40:27.077Z,91.63
2018-03-16T07:42:55.478Z,90.93
2018-03-16T07:45:30.099Z,90.45
2018-03-16T07:47:59.923Z,90.07
2018-03-16T07:50:28.236Z,90.22
2018-03-16T07:52:56.524Z,90.77
2018-03-16T07:55:24.946Z,90.75
2018-03-16T07:57:54.009Z,90.91
2018-03-16T08:00:22.656Z,90.65
2018-03-16T08:02:50.978Z,90.67
2018-03-16T08:05:19.440Z,90.37
2018-03-16T08:07:47.760Z,90.16
2018-03-16T08:10:16.787Z,90.47
2018-03-16T08:12:45.240Z,90.23
2018-03-16T08:15:14.283Z,90.61
2018-03-16T08:17:42.682Z,90.49
2018-03-16T08:20:10.976Z,90.94
2018-03-16T08:22:40.057Z,90.82
2018-03-16T08:25:09.165Z,90.94
2018-03-16T08:27:38.208Z,91.52
2018-03-16T08:30:06.532Z,90.80
2018-03-16T08:32:35.911Z,91.15
2018-03-16T08:35:04.251Z,91.60
2018-03-16T08:37:32.524Z,91.47
2018-03-16T08:40:00.811Z,91.67
2018-03-16T08:42:29.096Z,92.07
2018-03-16T08:44:57.370Z,91.97
2018-03-16T08:47:25.672Z,91.94
2018-03-16T08:49:53.961Z,92.52
2018-03-16T08:52:23.008Z,93.15
2018-03-16T08:54:51.372Z,93.86
2018-03-16T08:57:19.623Z,93.31
2018-03-16T08:59:47.990Z,93.39
2018-03-16T09:02:16.237Z,93.47
2018-03-16T09:04:44.633Z,93.53
2018-03-16T09:07:13.680Z,94.00
2018-03-16T09:09:41.957Z,94.23
2018-03-16T09:12:10.223Z,94.78
2018-03-16T09:14:38.512Z,95.22
2018-03-16T09:17:06.894Z,95.11
2018-03-16T09:19:35.420Z,94.99
2018-03-16T09:22:04.466Z,95.20
2018-03-16T09:24:32.752Z,94.98
2018-03-16T09:27:01.057Z,94.83
2018-03-16T09:29:30.203Z,94.42
2018-03-16T09:31:58.484Z,94.57
2018-03-16T09:34:26.833Z,94.15
2018-03-16T09:36:55.098Z,94.57
2018-03-16T09:39:23.563Z,94.24
2018-03-16T09:41:51.831Z,94.01
2018-03-16T09:44:20.923Z,94.36
2018-03-16T09:46:49.223Z,94.29
2018-03-16T09:49:17.478Z,94.32
2018-03-16T09:51:46.524Z,94.16
2018-03-16T09:54:14.792Z,94.18
2018-03-16T09:56:43.119Z,94.37
2018-03-16T09:59:12.950Z,94.03
2018-03-16T10:01:41.342Z,93.95
2018-03-16T10:04:09.629Z,93.83
2018-03-16T10:06:37.973Z,94.45
2018-03-16T10:09:06.247Z,94.51
2018-03-16T10:11:34.667Z,94.24
2018-03-16T10:14:02.919Z,94.50
2018-03-16T10:16:31.192Z,94.63
2018-03-16T10:18:59.447Z,94.14
2018-03-16T10:21:28.775Z,94.33
2018-03-16T10:23:57.797Z,94.39
2018-03-16T10:26:26.359Z,94.42
2018-03-16T10:28:54.640Z,94.26
2018-03-16T10:31:22.905Z,94.62
2018-03-16T10:33:51.184Z,94.54
2018-03-16T10:36:22.726Z,94.69
2018-03-16T10:38:51.001Z,94.40
2018-03-16T10:41:19.274Z,93.89
2018-03-16T10:43:47.555Z,93.75
2018-03-16T10:46:15.810Z,94.00
2018-03-16T10:48:44.101Z,93.49
2018-03-16T10:51:12.369Z,93.81
2018-03-16T10:53:40.795Z,94.17
2018-03-16T10:56:09.041Z,94.51
2018-03-16T10:58:37.318Z,94.35
2018-03-16T11:01:11.386Z,94.28
2018-03-16T11:03:45.434Z,93.97
2018-03-16T11:06:20.779Z,93.88
2018-03-16T11:08:50.077Z,94.69
2018-03-16T11:11:18.779Z,93.74
2018-03-16T11:13:47.886Z,93.72
2018-03-16T11:16:17.082Z,93.86
2018-03-16T11:18:45.961Z,93.20
2018-03-16T11:21:14.912Z,93.19
2018-03-16T11:23:43.990Z,93.00
2018-03-16T11:26:13.346Z,92.67
2018-03-16T11:28:42.043Z,92.76
2018-03-16T11:31:11.196Z,92.96
2018-03-16T11:33:40.959Z,92.53
2018-03-16T11:39:10.514Z,91.33
2018-03-16T11:41:39.264Z,91.79
2018-03-16T11:44:08.516Z,91.25
2018-03-16T11:46:37.913Z,91.35
2018-03-16T11:49:06.718Z,91.87
2018-03-16T11:51:35.811Z,91.02
2018-03-16T11:54:06.445Z,91.72
2018-03-16T11:56:35.214Z,92.55
2018-03-16T11:59:04.156Z,91.29
2018-03-16T12:01:33.300Z,91.01
2018-03-16T12:04:01.664Z,91.68
2018-03-16T12:06:30.266Z,92.14
2018-03-16T12:08:58.668Z,92.19
2018-03-16T12:11:28.463Z,91.92
2018-03-16T12:13:57.928Z,91.84
2018-03-16T12:16:26.840Z,91.11
2018-03-16T12:18:55.161Z,91.65
2018-03-16T12:21:23.489Z,90.64
2018-03-16T12:23:52.632Z,90.22
2018-03-16T12:26:24.248Z,89.39
2018-03-16T12:29:02.705Z,88.88
2018-03-16T12:31:32.740Z,89.10
2018-03-16T12:34:01.486Z,88.97
2018-03-16T12:36:31.726Z,87.93
2018-03-16T12:39:05.902Z,87.80
2018-03-16T12:41:35.705Z,88.59
2018-03-16T12:44:04.852Z,87.07
2018-03-16T12:46:34.255Z,88.78
2018-03-16T12:49:02.808Z,89.74
2018-03-16T12:51:31.270Z,88.10
2018-03-16T12:54:00.738Z,89.70
2018-03-16T12:56:29.476Z,86.22
2018-03-16T12:58:58.079Z,86.01
2018-03-16T13:01:26.915Z,86.10
2018-03-16T13:03:55.273Z,86.44
2018-03-16T13:06:23.905Z,87.82
2018-03-16T13:08:52.366Z,86.26
2018-03-16T13:11:21.000Z,84.89
2018-03-16T13:13:49.556Z,83.10
2018-03-16T13:16:18.157Z,84.08
2018-03-16T13:18:47.675Z,83.26
2018-03-16T13:21:17.392Z,76.08
2018-03-16T13:23:46.730Z,74.56
2018-03-16T13:26:15.386Z,72.34
2018-03-16T13:28:43.898Z,70.98
2018-03-16T13:31:12.599Z,72.58
2018-03-16T13:33:41.701Z,71.35
2018-03-16T13:36:10.179Z,71.83
2018-03-16T13:38:39.189Z,71.61
2018-03-16T13:41:08.520Z,70.77
2018-03-16T13:43:37.857Z,69.54
2018-03-16T13:46:08.998Z,69.78
2018-03-16T13:48:39.920Z,67.34
2018-03-16T13:51:09.588Z,67.90
2018-03-16T13:53:40.311Z,69.34
2018-03-16T13:56:11.310Z,69.84
2018-03-16T13:58:42.143Z,68.24
2018-03-16T14:01:13.383Z,69.16
2018-03-16T14:03:43.116Z,70.13
2018-03-16T14:06:11.871Z,72.77
2018-03-16T14:08:40.744Z,78.17
2018-03-16T14:11:10.471Z,80.20
2018-03-16T14:13:39.460Z,81.05
2018-03-16T14:16:08.665Z,81.68
2018-03-16T14:18:37.090Z,81.81
2018-03-16T14:21:05.922Z,84.85
2018-03-16T14:23:34.505Z,83.71
2018-03-16T14:26:05.025Z,85.95
2018-03-16T14:28:33.755Z,87.23
2018-03-16T14:31:04.043Z,86.91
2018-03-16T14:33:34.207Z,84.53
2018-03-16T14:36:03.748Z,78.86
2018-03-16T14:38:32.451Z,81.16
2018-03-16T14:41:01.108Z,79.46
2018-03-16T14:43:29.936Z,79.52
2018-03-16T14:46:00.232Z,78.08
2018-03-16T14:48:29.613Z,76.82
2018-03-16T14:50:58.318Z,72.57
2018-03-16T14:53:27.907Z,70.24
2018-03-16T14:55:56.837Z,70.49
2018-03-16T14:58:25.789Z,69.74
2018-03-16T15:00:55.087Z,68.19
2018-03-16T15:03:25.078Z,68.52
2018-03-16T15:05:55.900Z,69.75
2018-03-16T15:08:25.064Z,67.94
2018-03-16T15:10:53.648Z,68.18
2018-03-16T15:13:23.077Z,70.50
2018-03-16T15:15:54.022Z,69.42
2018-03-16T15:18:23.303Z,69.57
2018-03-16T15:20:51.998Z,69.67
2018-03-16T15:23:20.970Z,68.78
2018-03-16T15:25:49.708Z,69.26
2018-03-16T15:28:19.277Z,70.16
2018-03-16T15:30:47.982Z,68.95
2018-03-16T15:33:16.791Z,70.28
2018-03-16T15:35:46.003Z,71.42
2018-03-16T15:38:14.572Z,70.75
2018-03-16T15:40:44.483Z,70.45
2018-03-16T15:43:13.039Z,71.11
2018-03-16T15:45:42.078Z,69.98
2018-03-16T15:48:11.498Z,70.97
2018-03-16T15:50:40.336Z,71.23
2018-03-16T15:53:10.883Z,71.57
2018-03-16T15:55:43.361Z,70.84
2018-03-16T15:58:13.441Z,72.49
2018-03-16T16:00:43.181Z,70.83
2018-03-16T16:03:12.562Z,71.50
2018-03-16T16:05:42.985Z,71.24
2018-03-16T16:08:13.156Z,70.73
2018-03-16T16:10:52.913Z,72.35
2018-03-16T16:13:22.811Z,73.59
2018-03-16T16:15:55.243Z,73.17
2018-03-16T16:18:25.256Z,72.89
2018-03-16T16:20:54.458Z,73.62
2018-03-16T16:23:23.756Z,73.79
2018-03-16T16:25:52.269Z,73.98
2018-03-16T16:28:21.007Z,73.28
2018-03-16T16:30:50.672Z,73.53
2018-03-16T16:33:19.024Z,73.78
2018-03-16T16:35:47.783Z,75.40
2018-03-16T16:38:16.184Z,77.34
2018-03-16T16:40:45.718Z,79.03
2018-03-16T16:43:14.706Z,80.40
2018-03-16T16:45:45.811Z,80.20
2018-03-16T16:48:14.474Z,80.99
2018-03-16T16:50:43.635Z,81.68
2018-03-16T16:53:12.221Z,82.71
2018-03-16T16:55:41.963Z,81.88
2018-03-16T16:58:11.603Z,82.77
2018-03-16T17:00:41.345Z,82.86
2018-03-16T17:03:10.768Z,83.92
2018-03-16T17:05:40.702Z,82.88
2018-03-16T17:08:09.533Z,82.88
2018-03-16T17:10:39.256Z,82.58
2018-03-16T17:13:08.037Z,83.18
2018-03-16T17:15:36.756Z,82.98
2018-03-16T17:18:05.362Z,83.23
2018-03-16T17:20:34.283Z,83.39
2018-03-16T17:23:03.499Z,85.15
2018-03-16T17:25:32.857Z,82.49
2018-03-16T17:28:01.504Z,82.24
2018-03-16T17:30:30.186Z,82.72
2018-03-16T17:32:59.176Z,83.87
2018-03-16T17:35:28.247Z,85.82
2018-03-16T17:37:56.626Z,87.17
2018-03-16T17:40:26.154Z,89.63
2018-03-16T17:42:55.420Z,89.12
2018-03-16T17:45:24.426Z,87.35
2018-03-16T17:47:53.049Z,89.21
2018-03-16T17:50:22.920Z,88.54
2018-03-16T17:52:51.557Z,88.57
2018-03-16T17:55:21.378Z,87.87
2018-03-16T17:57:49.955Z,89.09
2018-03-16T18:00:18.612Z,88.35
2018-03-16T18:02:47.009Z,87.59
2018-03-16T18:05:16.352Z,87.09
2018-03-16T18:07:45.050Z,88.12
2018-03-16T18:10:13.586Z,88.67
2018-03-16T18:12:42.543Z,88.46
2018-03-16T18:15:11.178Z,89.69
2018-03-16T18:17:40.801Z,89.69
2018-03-16T18:20:09.603Z,90.67
2018-03-16T18:22:38.170Z,91.21
2018-03-16T18:25:06.583Z,91.23
2018-03-16T18:27:35.253Z,91.47
2018-03-16T18:30:04.236Z,91.25
2018-03-16T18:32:33.401Z,91.50
2018-03-16T18:35:01.958Z,91.88
2018-03-16T18:37:30.758Z,92.71
2018-03-16T18:39:59.399Z,92.90
2018-03-16T18:42:28.992Z,93.02
2018-03-16T18:44:58.198Z,93.27
2018-03-16T18:47:27.063Z,93.19
2018-03-16T18:49:56.993Z,93.15
2018-03-16T18:52:25.374Z,92.97
2018-03-16T18:54:54.633Z,93.08
2018-03-16T18:57:23.226Z,93.35
2018-03-16T18:59:53.280Z,93.07
2018-03-16T19:02:22.870Z,93.33
2018-03-16T19:04:51.600Z,93.47
2018-03-16T19:07:21.842Z,93.33
2018-03-16T19:09:50.437Z,92.98
2018-03-16T19:12:19.130Z,92.67
2018-03-16T19:14:47.876Z,92.87
2018-03-16T19:17:18.187Z,93.32
2018-03-16T19:19:46.956Z,92.63
2018-03-16T19:22:15.584Z,92.23
2018-03-16T19:24:44.505Z,92.10
2018-03-16T19:27:13.219Z,92.16
2018-03-16T19:29:42.523Z,91.25
2018-03-16T19:32:11.481Z,92.11
2018-03-16T19:34:40.090Z,92.18
2018-03-16T19:37:08.779Z,92.23
2018-03-16T19:39:37.433Z,91.50
2018-03-16T19:42:06.335Z,91.31
2018-03-16T19:44:35.948Z,92.62
2018-03-16T19:47:04.795Z,92.79
2018-03-16T19:49:34.067Z,92.71
2018-03-16T19:52:02.807Z,92.10
2018-03-16T19:54:31.516Z,93.10
2018-03-16T19:57:00.350Z,94.29
2018-03-16T19:59:29.159Z,94.58
2018-03-16T20:01:59.181Z,94.55
2018-03-16T20:04:28.635Z,92.94
2018-03-16T20:06:57.594Z,93.87
2018-03-16T20:09:26.728Z,93.02
2018-03-16T20:11:55.570Z,93.04
2018-03-16T20:14:24.878Z,93.82
2018-03-16T20:16:54.809Z,93.29
2018-03-16T20:19:23.833Z,93.77
2018-03-16T20:21:53.010Z,92.92
2018-03-16T20:24:22.150Z,93.45
2018-03-16T20:26:51.151Z,93.49
2018-03-16T20:29:19.621Z,93.00
2018-03-16T20:31:49.015Z,91.91
2018-03-16T20:34:17.630Z,92.88
2018-03-16T20:36:47.028Z,93.32
2018-03-16T20:39:15.998Z,94.25
2018-03-16T20:41:45.347Z,94.75
2018-03-16T20:44:14.328Z,94.34
2018-03-16T20:46:43.871Z,94.21
2018-03-16T20:49:13.916Z,94.09
2018-03-16T20:51:42.571Z,94.40
2018-03-16T20:54:11.834Z,95.01
2018-03-16T20:56:40.516Z,94.38
2018-03-16T20:59:09.096Z,94.29
2018-03-16T21:01:37.884Z,94.37
2018-03-16T21:04:06.611Z,95.04
2018-03-16T21:06:35.471Z,95.55
2018-03-16T21:09:04.966Z,95.53
2018-03-16T21:11:33.802Z,95.98
2018-03-16T21:14:03.002Z,96.44
2018-03-16T21:16:31.798Z,96.38
2018-03-16T21:19:01.512Z,96.18
2018-03-16T21:21:30.161Z,96.05
2018-03-16T21:23:58.799Z,96.21
2018-03-16T21:26:27.288Z,96.17
2018-03-16T21:28:55.722Z,95.23
2018-03-16T21:31:24.234Z,95.54
2018-03-16T21:33:53.214Z,95.86
2018-03-16T21:36:23.507Z,95.88
2018-03-16T21:38:54.202Z,95.96
2018-03-16T21:41:22.979Z,96.60
2018-03-16T21:43:51.848Z,96.89
2018-03-16T21:46:20.518Z,97.16
2018-03-16T21:48:49.357Z,96.98
2018-03-16T21:51:18.923Z,96.91
2018-03-16T21:53:47.523Z,96.19
2018-03-16T21:56:17.524Z,96.93
2018-03-16T21:58:46.165Z,97.33
2018-03-16T22:01:15.542Z,97.65
2018-03-16T22:03:44.259Z,97.57
2018-03-16T22:06:12.856Z,97.85
2018-03-16T22:08:41.906Z,97.78
2018-03-16T22:11:10.482Z,98.00
2018-03-16T22:13:38.919Z,98.02
2018-03-16T22:16:08.457Z,97.93
2018-03-16T22:18:37.031Z,98.21
2018-03-16T22:21:06.124Z,97.87
2018-03-16T22:23:34.841Z,97.92
2018-03-16T22:26:04.935Z,97.73
2018-03-16T22:28:33.688Z,97.50
2018-03-16T22:31:02.270Z,97.40
2018-03-16T22:33:31.254Z,96.91
2018-03-16T22:36:00.725Z,97.23
2018-03-16T22:38:29.353Z,96.80
2018-03-16T22:40:57.988Z,96.93
2018-03-16T22:43:26.417Z,96.80
2018-03-16T22:45:55.110Z,96.67
2018-03-16T22:48:23.645Z,96.21
2018-03-16T22:50:51.985Z,96.04
2018-03-16T22:53:20.267Z,95.86
2018-03-16T22:55:48.601Z,95.95
2018-03-16T22:58:16.880Z,95.47
2018-03-16T23:00:45.714Z,95.42
2018-03-16T23:03:13.977Z,95.88
2018-03-16T23:05:42.374Z,94.44
2018-03-16T23:08:11.490Z,95.32
2018-03-16T23:10:39.789Z,95.40
2018-03-16T23:13:08.151Z,94.64
2018-03-16T23:15:36.511Z,94.12
2018-03-16T23:18:05.764Z,94.79
2018-03-16T23:20:34.218Z,95.62
2018-03-16T23:23:02.479Z,95.87
2018-03-16T23:25:30.931Z,95.77
2018-03-16T23:27:59.994Z,95.41
2018-03-16T23:30:28.476Z,94.24
2018-03-16T23:32:56.807Z,94.11
2018-03-16T23:35:25.281Z,95.18
2018-03-16T23:37:53.816Z,95.55
2018-03-16T23:40:22.133Z,95.18
2018-03-16T23:42:51.193Z,95.69
2018-03-16T23:45:19.561Z,95.74
2018-03-16T23:47:47.888Z,95.62
2018-03-16T23:50:17.320Z,95.24
2018-03-16T23:52:45.604Z,95.50
2018-03-16T23:55:13.901Z,95.54
2018-03-16T23:57:42.154Z,95.09
